Terminal Aerodrome Forecast
Issued by NWS Louisville, KY

Home | Current Version | Previous Version | Text Only | Print | Product List | Glossary On
Versions: 1 2 3 4 5 6 7 8 9 10 11 12 13 14 15
000
FTUS43 KLMK 260500
TAFLEX
TAF
KLEX 260520Z 2606/2706 17004KT 6SM BR SCT250
     FM261400 20012G20KT P6SM SCT040 SCT250
     FM261800 20016G23KT P6SM VCTS BKN045CB
     FM270100 20012KT P6SM BKN050=

USA.gov is the U.S. government's official web portal to all federal, state and local government web resources and services.